Time;durP1;ratioP1;P1;durP2;ratioP2;P2;SDS_P1;SDS_P2;PMS_P1;PMS_P2;Temp;Humidity;BMP_temperature;BMP_pressure;BME280_temperature;BME280_humidity;BME280_pressure;Samples;Min_cycle;Max_cycle;Signal;HPM_P1;HPM_P2
2021/12/12 00:00:50;;;;;;;37.87;18.37;;;2.30;99.90;;;;;;5097507;28;20407;-90
2021/12/12 00:03:33;;;;;;;42.03;19.80;;;2.30;99.90;;;;;;5096143;28;20418;-90
2021/12/12 00:06:01;;;;;;;50.97;18.90;;;2.40;99.90;;;;;;5096237;28;20771;-89
2021/12/12 00:08:28;;;;;;;44.67;17.13;;;2.40;99.90;;;;;;5097138;28;20442;-89
2021/12/12 00:11:00;;;;;;;38.37;18.20;;;2.40;99.90;;;;;;5097055;28;20544;-89
2021/12/12 00:13:31;;;;;;;38.97;16.33;;;2.40;99.90;;;;;;5096010;28;20421;-90
2021/12/12 00:15:57;;;;;;;41.73;17.93;;;2.40;99.90;;;;;;5093660;28;20919;-88
2021/12/12 00:18:22;;;;;;;47.10;19.20;;;2.40;99.90;;;;;;5076491;28;20503;-90
2021/12/12 00:20:50;;;;;;;41.40;17.37;;;2.50;99.90;;;;;;5075437;28;20218;-90
2021/12/12 00:23:17;;;;;;;43.80;17.80;;;2.40;99.90;;;;;;5076563;28;20199;-88
2021/12/12 00:25:48;;;;;;;44.37;16.57;;;2.40;99.90;;;;;;5075224;28;20416;-90
2021/12/12 00:28:19;;;;;;;35.80;16.13;;;2.50;99.90;;;;;;5074576;28;20435;-89
2021/12/12 00:30:46;;;;;;;37.53;17.87;;;2.60;99.90;;;;;;5086396;28;20524;-87
2021/12/12 00:33:12;;;;;;;40.50;18.03;;;2.50;99.90;;;;;;5096385;28;20555;-89
2021/12/12 00:35:39;;;;;;;49.27;21.20;;;2.40;99.90;;;;;;5085442;28;20441;-89
2021/12/12 00:38:10;;;;;;;50.60;17.57;;;2.40;99.90;;;;;;5076097;28;20452;-90
2021/12/12 00:40:38;;;;;;;49.13;19.17;;;2.50;99.90;;;;;;5075345;28;20745;-87
2021/12/12 00:43:13;;;;;;;48.20;20.87;;;2.50;99.90;;;;;;5079129;28;20432;-88
2021/12/12 00:45:40;;;;;;;50.67;16.80;;;2.50;99.90;;;;;;5096281;28;20455;-87
2021/12/12 00:48:07;;;;;;;41.17;17.10;;;2.50;99.90;;;;;;5094995;28;20458;-88
2021/12/12 00:50:36;;;;;;;41.90;19.47;;;2.60;99.90;;;;;;5094533;28;20477;-89
2021/12/12 00:53:06;;;;;;;39.70;17.70;;;2.60;99.90;;;;;;5096443;28;20415;-90
2021/12/12 00:55:37;;;;;;;38.53;17.90;;;2.50;99.90;;;;;;5079515;28;20416;-90
2021/12/12 00:58:07;;;;;;;40.17;17.13;;;2.50;99.90;;;;;;5076029;28;20412;-90
2021/12/12 01:00:39;;;;;;;37.77;19.57;;;2.50;99.90;;;;;;5074808;28;20434;-89
2021/12/12 01:03:08;;;;;;;44.90;20.83;;;2.50;99.90;;;;;;5074411;28;20842;-90
2021/12/12 01:05:34;;;;;;;41.23;19.30;;;2.50;99.90;;;;;;5093074;28;20878;-90
2021/12/12 01:08:00;;;;;;;38.03;16.80;;;2.50;99.90;;;;;;5095635;28;20454;-87
2021/12/12 01:10:39;;;;;;;38.40;16.77;;;2.40;99.90;;;;;;5095381;28;20540;-92
2021/12/12 01:13:06;;;;;;;37.77;15.90;;;2.40;99.90;;;;;;5096396;28;20584;-90
2021/12/12 01:15:40;;;;;;;47.27;18.13;;;2.50;99.90;;;;;;5103170;28;20417;-90
2021/12/12 01:18:13;;;;;;;37.73;17.80;;;2.60;99.90;;;;;;5114555;28;20821;-89
2021/12/12 01:20:52;;;;;;;36.40;16.43;;;2.60;99.90;;;;;;5114925;28;20762;-89
2021/12/12 01:23:23;;;;;;;44.33;17.80;;;2.40;99.90;;;;;;5114975;28;20448;-94
2021/12/12 01:25:50;;;;;;;45.07;17.87;;;2.50;99.90;;;;;;5114708;28;20504;-90
2021/12/12 01:28:19;;;;;;;42.20;19.53;;;2.40;99.90;;;;;;5114704;28;20413;-91
2021/12/12 01:30:51;;;;;;;30.20;16.33;;;2.50;99.90;;;;;;5114526;28;20470;-88
2021/12/12 01:33:33;;;;;;;34.63;16.50;;;2.50;99.90;;;;;;5109158;28;20426;-90
2021/12/12 01:36:04;;;;;;;35.77;16.93;;;2.40;99.90;;;;;;5075083;28;20405;-87
2021/12/12 01:41:14;;;;;;;36.70;15.77;;;2.50;99.90;;;;;;5074809;28;20426;-90
2021/12/12 01:43:45;;;;;;;38.57;16.20;;;2.50;99.90;;;;;;5073501;28;20407;-87
2021/12/12 01:46:19;;;;;;;37.53;17.53;;;2.50;99.90;;;;;;5073793;28;20935;-89
2021/12/12 01:49:20;;;;;;;38.33;16.80;;;2.40;99.90;;;;;;5074250;28;20426;-88
2021/12/12 01:51:49;;;;;;;33.30;14.37;;;2.50;99.90;;;;;;5070419;28;20491;-88
2021/12/12 01:54:18;;;;;;;42.20;18.03;;;2.50;99.90;;;;;;5074416;28;20468;-90
2021/12/12 01:56:53;;;;;;;25.57;14.57;;;2.50;99.90;;;;;;5074523;28;20423;-90
2021/12/12 01:59:23;;;;;;;26.60;15.40;;;2.50;99.90;;;;;;5073549;28;20419;-88
2021/12/12 02:01:54;;;;;;;33.17;16.87;;;2.50;99.90;;;;;;5073287;28;20425;-89
2021/12/12 02:04:24;;;;;;;31.90;16.30;;;2.60;99.90;;;;;;5073049;28;20419;-90
2021/12/12 02:06:51;;;;;;;33.53;14.87;;;2.50;99.90;;;;;;5073279;28;20434;-88
2021/12/12 02:09:19;;;;;;;33.33;15.17;;;2.50;99.90;;;;;;5074214;28;20409;-88
2021/12/12 02:11:47;;;;;;;26.07;13.40;;;2.50;99.90;;;;;;5073094;28;21045;-88
2021/12/12 02:14:16;;;;;;;29.30;13.70;;;2.50;99.90;;;;;;5074423;28;20403;-87
2021/12/12 02:16:47;;;;;;;31.13;16.13;;;2.60;99.90;;;;;;5074086;28;20425;-90
2021/12/12 02:19:15;;;;;;;25.60;13.70;;;2.50;99.90;;;;;;5073775;28;20767;-87
2021/12/12 02:35:41;;;;;;;31.07;13.93;;;2.50;99.90;;;;;;5073220;28;20508;-85
2021/12/12 02:38:10;;;;;;;28.30;14.67;;;2.50;99.90;;;;;;5073116;28;20512;-87
2021/12/12 02:40:43;;;;;;;31.63;15.07;;;2.60;99.90;;;;;;5072735;28;20418;-89
2021/12/12 02:43:12;;;;;;;33.53;15.40;;;2.60;99.90;;;;;;5073872;28;20419;-89
2021/12/12 02:45:39;;;;;;;34.47;16.27;;;2.60;99.90;;;;;;5072457;28;20412;-88
2021/12/12 02:48:07;;;;;;;29.93;13.83;;;2.60;99.90;;;;;;5073822;28;20421;-86
2021/12/12 02:50:39;;;;;;;32.07;15.10;;;2.60;99.90;;;;;;5072825;28;20473;-85
2021/12/12 02:53:13;;;;;;;27.23;15.10;;;2.70;99.90;;;;;;5073391;28;20411;-87
2021/12/12 02:55:43;;;;;;;38.13;17.47;;;2.70;99.90;;;;;;5072219;28;20413;-90
2021/12/12 02:58:13;;;;;;;40.13;16.23;;;2.60;99.90;;;;;;5073415;28;20423;-86
2021/12/12 03:00:45;;;;;;;27.83;15.33;;;2.70;99.90;;;;;;5072965;28;20399;-90
2021/12/12 03:03:12;;;;;;;38.40;15.93;;;2.70;99.90;;;;;;5073169;28;20415;-90
2021/12/12 03:05:41;;;;;;;35.00;14.73;;;2.70;99.90;;;;;;5072722;28;20419;-91
2021/12/12 03:08:08;;;;;;;31.33;15.63;;;2.70;99.90;;;;;;5072709;28;20993;-92
2021/12/12 03:10:37;;;;;;;27.60;13.50;;;2.70;99.90;;;;;;5073880;28;20784;-85
2021/12/12 03:13:04;;;;;;;28.03;13.40;;;2.70;99.90;;;;;;5072297;28;20824;-86
2021/12/12 03:15:34;;;;;;;27.13;11.70;;;2.80;99.90;;;;;;5072155;28;20514;-91
2021/12/12 03:18:02;;;;;;;33.80;15.30;;;2.80;99.90;;;;;;5072109;28;20425;-90
2021/12/12 03:20:35;;;;;;;35.17;14.90;;;2.80;99.90;;;;;;5073613;28;20416;-90
2021/12/12 03:23:06;;;;;;;32.07;14.07;;;2.80;99.90;;;;;;5073788;28;20408;-92
2021/12/12 03:25:35;;;;;;;30.30;15.97;;;2.80;99.90;;;;;;5073863;28;20426;-92
2021/12/12 03:28:04;;;;;;;28.17;12.90;;;2.80;99.90;;;;;;5079153;28;20414;-86
2021/12/12 03:30:29;;;;;;;33.07;16.97;;;2.90;99.90;;;;;;5098977;28;20481;-89
2021/12/12 03:32:55;;;;;;;34.03;17.13;;;2.90;99.90;;;;;;5082414;28;20415;-92
2021/12/12 03:35:21;;;;;;;37.93;17.50;;;2.90;99.90;;;;;;5078127;28;20169;-92
2021/12/12 03:37:47;;;;;;;29.27;15.17;;;2.90;99.90;;;;;;5076927;28;20571;-91
2021/12/12 03:40:21;;;;;;;35.33;16.90;;;2.90;99.90;;;;;;5076881;28;20424;-89
2021/12/12 03:42:49;;;;;;;31.63;14.70;;;2.90;99.90;;;;;;5076873;28;20481;-90
2021/12/12 03:45:17;;;;;;;28.20;13.80;;;2.90;99.90;;;;;;5076829;28;20920;-90
2021/12/12 03:47:51;;;;;;;30.37;15.30;;;2.90;99.90;;;;;;5076598;28;20938;-91
2021/12/12 03:50:25;;;;;;;25.87;13.17;;;3.00;99.90;;;;;;5092884;28;20992;-91
2021/12/12 03:52:51;;;;;;;32.00;16.00;;;2.90;99.90;;;;;;5076103;28;20421;-91
2021/12/12 03:55:18;;;;;;;31.33;15.13;;;3.00;99.90;;;;;;5076467;28;21133;-91
2021/12/12 03:57:47;;;;;;;34.23;14.20;;;3.00;99.90;;;;;;5077127;28;20950;-89
2021/12/12 04:00:19;;;;;;;31.47;14.80;;;3.00;99.90;;;;;;5076425;28;20977;-91
2021/12/12 04:02:45;;;;;;;32.90;14.83;;;3.00;99.90;;;;;;5077512;28;20399;-91
2021/12/12 04:05:11;;;;;;;30.00;12.57;;;3.00;99.90;;;;;;5076794;28;20431;-91
2021/12/12 04:07:37;;;;;;;27.27;15.03;;;3.00;99.90;;;;;;5076051;28;20202;-88
2021/12/12 04:10:05;;;;;;;35.13;15.00;;;3.00;99.90;;;;;;5076850;28;20200;-90
2021/12/12 04:12:31;;;;;;;29.43;15.13;;;3.10;99.90;;;;;;5075907;28;20489;-92
2021/12/12 04:14:57;;;;;;;37.33;15.20;;;3.10;99.90;;;;;;5076345;28;20935;-91
2021/12/12 04:17:28;;;;;;;32.87;15.60;;;3.10;99.90;;;;;;5077177;28;20177;-91
2021/12/12 04:19:58;;;;;;;34.50;16.20;;;3.10;99.90;;;;;;5076692;28;20414;-91
2021/12/12 04:22:24;;;;;;;34.03;14.73;;;3.10;99.90;;;;;;5075905;28;20416;-93
2021/12/12 04:24:52;;;;;;;34.63;15.03;;;3.10;99.90;;;;;;5077001;28;20407;-92
2021/12/12 04:27:19;;;;;;;29.73;15.53;;;3.20;99.90;;;;;;5077011;28;20414;-90
2021/12/12 04:29:47;;;;;;;36.83;16.60;;;3.20;99.90;;;;;;5075890;28;20452;-90
2021/12/12 04:32:16;;;;;;;29.03;16.10;;;3.20;99.90;;;;;;5076749;28;20512;-91
2021/12/12 04:34:52;;;;;;;34.37;16.30;;;3.20;99.90;;;;;;5076192;28;20404;-87
2021/12/12 04:37:20;;;;;;;34.67;15.30;;;3.20;99.90;;;;;;5075771;28;21011;-88
2021/12/12 04:39:53;;;;;;;39.73;17.87;;;3.20;99.90;;;;;;5073730;28;20562;-88
2021/12/12 04:42:23;;;;;;;31.87;15.50;;;3.30;99.90;;;;;;5075682;28;20472;-87
2021/12/12 04:44:52;;;;;;;31.00;16.83;;;3.30;99.90;;;;;;5075854;28;20404;-88
2021/12/12 04:50:27;;;;;;;37.90;16.67;;;3.30;99.90;;;;;;5075301;28;20447;-88
2021/12/12 04:52:59;;;;;;;32.80;15.30;;;3.30;99.90;;;;;;5075529;28;20424;-87
2021/12/12 04:55:41;;;;;;;37.20;19.33;;;3.30;99.90;;;;;;5075551;28;20399;-88
2021/12/12 04:58:19;;;;;;;36.83;16.63;;;3.30;99.90;;;;;;5075750;28;20456;-88
2021/12/12 05:00:56;;;;;;;40.40;17.90;;;3.30;99.90;;;;;;5075788;28;20754;-88
2021/12/12 05:03:34;;;;;;;43.00;18.83;;;3.30;99.90;;;;;;5075167;28;20444;-87
2021/12/12 05:06:26;;;;;;;32.27;15.20;;;3.30;99.90;;;;;;5075171;28;20411;-88
2021/12/12 05:09:15;;;;;;;39.23;17.97;;;3.30;99.90;;;;;;5065683;28;20770;-88
2021/12/12 05:11:51;;;;;;;34.57;16.60;;;3.30;99.90;;;;;;5073879;28;20562;-88
2021/12/12 05:14:22;;;;;;;41.03;17.70;;;3.30;99.90;;;;;;5074548;28;20425;-87
2021/12/12 05:16:52;;;;;;;34.70;15.40;;;3.30;99.90;;;;;;5075529;28;20415;-89
2021/12/12 05:19:22;;;;;;;33.47;15.47;;;3.30;99.90;;;;;;5075141;28;20415;-89
2021/12/12 05:21:51;;;;;;;39.70;17.20;;;3.30;99.90;;;;;;5075245;28;20758;-89
2021/12/12 05:24:21;;;;;;;39.17;17.67;;;3.30;99.90;;;;;;5075381;28;20419;-88
2021/12/12 05:26:52;;;;;;;37.90;16.87;;;3.30;99.90;;;;;;5074435;28;20446;-89
2021/12/12 05:29:32;;;;;;;39.60;17.87;;;3.30;99.90;;;;;;5075212;28;20403;-88
2021/12/12 05:32:01;;;;;;;37.17;17.20;;;3.30;99.90;;;;;;5073943;28;20496;-89
2021/12/12 05:34:30;;;;;;;37.73;17.70;;;3.30;99.90;;;;;;5074953;28;20769;-89
2021/12/12 05:36:57;;;;;;;35.63;17.97;;;3.40;99.90;;;;;;5074387;28;20455;-90
2021/12/12 05:39:25;;;;;;;38.87;17.87;;;3.40;99.90;;;;;;5075194;28;20459;-92
2021/12/12 05:41:53;;;;;;;37.60;17.93;;;3.40;99.90;;;;;;5074397;28;20469;-89
2021/12/12 05:44:19;;;;;;;43.27;20.53;;;3.40;99.90;;;;;;5075618;28;20405;-93
2021/12/12 05:46:45;;;;;;;39.40;18.80;;;3.40;99.90;;;;;;5074293;28;20415;-93
2021/12/12 05:49:11;;;;;;;36.43;17.63;;;3.40;99.90;;;;;;5075032;28;20399;-91
2021/12/12 05:51:37;;;;;;;53.10;18.27;;;3.40;99.90;;;;;;5074920;28;20549;-91
2021/12/12 05:54:04;;;;;;;48.00;20.40;;;3.40;99.90;;;;;;5075022;28;20239;-90
2021/12/12 05:56:34;;;;;;;46.53;21.90;;;3.50;99.90;;;;;;5075140;28;20573;-92
2021/12/12 05:59:02;;;;;;;45.70;20.80;;;3.50;99.90;;;;;;5074123;28;20476;-91
2021/12/12 06:01:30;;;;;;;42.70;18.80;;;3.50;99.90;;;;;;5075022;28;20451;-92
2021/12/12 06:03:56;;;;;;;38.63;19.43;;;3.50;99.90;;;;;;5075403;28;20916;-91
2021/12/12 06:06:30;;;;;;;39.97;19.30;;;3.50;99.90;;;;;;5073953;28;20426;-92
2021/12/12 06:08:59;;;;;;;37.57;19.90;;;3.50;99.90;;;;;;5073457;28;20514;-92
2021/12/12 06:11:27;;;;;;;40.97;18.93;;;3.50;99.90;;;;;;5073893;28;20552;-92
2021/12/12 06:13:54;;;;;;;47.60;21.20;;;3.50;99.90;;;;;;5074884;28;20408;-90
2021/12/12 06:16:21;;;;;;;40.93;19.97;;;3.60;99.90;;;;;;5073755;28;20423;-91
2021/12/12 06:19:12;;;;;;;45.73;20.23;;;3.60;99.90;;;;;;5074543;28;20448;-91
2021/12/12 06:21:38;;;;;;;46.20;18.67;;;3.70;99.90;;;;;;5073771;28;20499;-91
2021/12/12 06:24:05;;;;;;;38.17;17.93;;;3.70;99.90;;;;;;5074764;28;20915;-90
2021/12/12 06:26:32;;;;;;;49.20;20.27;;;3.70;99.90;;;;;;5073492;28;20420;-90
2021/12/12 06:28:58;;;;;;;36.00;19.10;;;3.70;99.90;;;;;;5074449;28;20489;-89
2021/12/12 06:31:24;;;;;;;39.97;16.90;;;3.80;99.90;;;;;;5074423;28;20549;-90
2021/12/12 06:33:50;;;;;;;41.47;19.00;;;3.80;99.90;;;;;;5073860;28;20185;-88
2021/12/12 06:36:17;;;;;;;41.13;18.27;;;3.80;99.90;;;;;;5073904;28;20421;-89
2021/12/12 06:38:46;;;;;;;38.90;17.23;;;3.80;99.90;;;;;;5073893;28;20454;-89
2021/12/12 06:41:13;;;;;;;44.93;17.70;;;3.90;99.90;;;;;;5072753;28;20419;-89
2021/12/12 06:43:41;;;;;;;39.67;19.33;;;3.90;99.90;;;;;;5072705;28;20420;-90
2021/12/12 06:46:07;;;;;;;37.47;16.97;;;3.80;99.90;;;;;;5074418;28;20822;-90
2021/12/12 06:48:34;;;;;;;37.20;17.00;;;3.90;99.90;;;;;;5073889;28;20770;-91
2021/12/12 06:51:01;;;;;;;40.73;17.90;;;3.90;99.90;;;;;;5074369;28;20853;-90
2021/12/12 06:53:29;;;;;;;36.87;17.47;;;3.90;99.90;;;;;;5074245;28;20469;-90
2021/12/12 06:55:57;;;;;;;41.13;16.40;;;3.90;99.90;;;;;;5073927;28;20415;-90
2021/12/12 06:58:25;;;;;;;38.27;16.10;;;3.90;99.90;;;;;;5072883;28;20731;-90
2021/12/12 07:01:04;;;;;;;33.60;15.47;;;3.90;99.90;;;;;;5074000;28;20937;-88
2021/12/12 07:03:31;;;;;;;34.63;15.60;;;3.90;99.90;;;;;;5072296;28;20419;-89
2021/12/12 07:05:57;;;;;;;40.67;16.27;;;3.90;99.90;;;;;;5073936;28;20514;-91
2021/12/12 07:08:25;;;;;;;29.03;16.23;;;3.90;99.90;;;;;;5073939;28;20421;-90
2021/12/12 07:10:51;;;;;;;35.90;18.50;;;3.90;99.90;;;;;;5074157;28;20451;-91
2021/12/12 07:13:18;;;;;;;30.67;16.07;;;3.90;99.90;;;;;;5074216;28;20413;-92
2021/12/12 07:15:47;;;;;;;32.70;15.37;;;3.90;99.90;;;;;;5074892;28;20401;-90
2021/12/12 07:18:15;;;;;;;30.13;14.27;;;3.90;99.90;;;;;;5072327;28;20429;-90
2021/12/12 07:20:42;;;;;;;36.47;16.10;;;3.90;99.90;;;;;;5072879;28;20810;-89
2021/12/12 07:23:10;;;;;;;34.00;17.10;;;3.90;99.90;;;;;;5073668;28;20446;-89
2021/12/12 07:25:38;;;;;;;27.93;13.90;;;3.90;99.90;;;;;;5073433;28;20414;-90
2021/12/12 07:28:04;;;;;;;29.83;14.43;;;3.90;99.90;;;;;;5073682;28;20425;-89
2021/12/12 07:30:31;;;;;;;35.43;13.67;;;3.90;99.90;;;;;;5073331;28;21047;-91
2021/12/12 07:32:58;;;;;;;36.63;14.93;;;3.90;99.90;;;;;;5072186;28;20800;-92
2021/12/12 07:35:26;;;;;;;26.93;13.63;;;3.90;99.90;;;;;;5072867;28;20399;-91
2021/12/12 07:37:52;;;;;;;29.73;13.47;;;3.90;99.90;;;;;;5073809;28;20483;-90
2021/12/12 07:40:20;;;;;;;27.63;13.80;;;3.90;99.90;;;;;;5073606;28;20909;-90
2021/12/12 07:42:47;;;;;;;26.57;14.10;;;3.90;99.90;;;;;;5073661;28;20422;-89
2021/12/12 07:45:13;;;;;;;30.03;13.90;;;3.90;99.90;;;;;;5073285;28;20496;-89
2021/12/12 07:47:39;;;;;;;29.40;14.07;;;3.90;99.90;;;;;;5071608;28;20450;-88
2021/12/12 07:50:11;;;;;;;37.53;15.67;;;3.90;99.90;;;;;;5072979;28;20800;-89
2021/12/12 07:52:37;;;;;;;26.70;13.37;;;3.90;99.90;;;;;;5073269;28;20662;-86
2021/12/12 07:55:04;;;;;;;21.10;12.77;;;3.90;99.90;;;;;;5072022;28;20518;-88
2021/12/12 07:57:30;;;;;;;36.57;14.67;;;3.90;99.90;;;;;;5073313;28;20409;-88
2021/12/12 07:59:58;;;;;;;25.77;13.50;;;3.90;99.90;;;;;;5089011;28;20410;-91
2021/12/12 08:02:24;;;;;;;27.00;13.27;;;3.90;99.90;;;;;;5092530;28;20502;-90
2021/12/12 08:04:51;;;;;;;22.23;11.67;;;3.90;99.90;;;;;;5093886;28;20468;-90
2021/12/12 08:07:20;;;;;;;25.63;13.93;;;3.90;99.90;;;;;;5093998;28;20422;-91
2021/12/12 08:09:47;;;;;;;23.93;11.93;;;3.90;99.90;;;;;;5092629;28;20444;-91
2021/12/12 08:12:18;;;;;;;25.87;14.13;;;3.90;99.90;;;;;;5092633;28;20442;-90
2021/12/12 08:14:45;;;;;;;24.70;12.67;;;3.90;99.90;;;;;;5096559;28;20493;-91
2021/12/12 08:17:12;;;;;;;22.80;12.57;;;3.90;99.90;;;;;;5097251;28;20490;-93
2021/12/12 08:19:38;;;;;;;18.53;11.87;;;3.90;99.90;;;;;;5097045;28;20509;-87
2021/12/12 08:22:07;;;;;;;24.10;13.10;;;3.90;99.90;;;;;;5095711;28;20433;-88
2021/12/12 08:24:35;;;;;;;25.03;12.67;;;3.90;99.90;;;;;;5095486;28;20425;-91
2021/12/12 08:27:03;;;;;;;25.53;11.50;;;3.90;99.90;;;;;;5097362;28;20415;-90
2021/12/12 08:29:30;;;;;;;29.43;14.40;;;4.00;99.90;;;;;;5098493;28;20418;-90
2021/12/12 08:32:02;;;;;;;41.63;14.70;;;4.00;99.90;;;;;;5097289;28;20450;-90
2021/12/12 08:34:28;;;;;;;27.87;14.00;;;4.00;99.90;;;;;;5096620;28;20423;-89
2021/12/12 08:36:55;;;;;;;29.37;11.90;;;3.90;99.90;;;;;;5096876;28;20411;-91
2021/12/12 08:39:21;;;;;;;27.57;13.17;;;4.00;99.90;;;;;;5095324;28;20786;-89
2021/12/12 08:41:50;;;;;;;32.80;13.67;;;4.00;99.90;;;;;;5095031;28;21000;-89
2021/12/12 08:44:16;;;;;;;20.33;11.93;;;3.90;99.90;;;;;;5095387;28;20402;-90
2021/12/12 08:46:48;;;;;;;26.23;9.97;;;4.00;99.90;;;;;;5094659;28;20782;-89
2021/12/12 08:49:16;;;;;;;26.87;12.60;;;4.00;99.90;;;;;;5096409;28;20410;-87
2021/12/12 08:51:50;;;;;;;18.80;11.30;;;4.00;99.90;;;;;;5095959;28;20626;-90
2021/12/12 08:54:25;;;;;;;18.83;9.43;;;4.00;99.90;;;;;;5096869;28;20429;-90
2021/12/12 08:57:02;;;;;;;24.77;11.83;;;4.00;99.90;;;;;;5097013;28;20398;-90
2021/12/12 08:59:28;;;;;;;20.67;9.97;;;3.90;99.90;;;;;;5095416;28;20418;-90
2021/12/12 09:01:58;;;;;;;24.17;10.40;;;4.00;99.90;;;;;;5096291;28;20448;-89
2021/12/12 09:04:28;;;;;;;25.50;10.40;;;3.90;99.90;;;;;;5094513;28;20763;-89
2021/12/12 09:07:05;;;;;;;22.80;11.93;;;3.90;99.90;;;;;;5096269;28;20402;-91
2021/12/12 09:09:42;;;;;;;23.77;10.10;;;3.90;99.90;;;;;;5093858;28;20509;-90
2021/12/12 09:12:25;;;;;;;16.73;8.40;;;3.90;99.90;;;;;;5095401;28;21181;-90
2021/12/12 09:14:54;;;;;;;20.60;9.43;;;4.00;99.90;;;;;;5118259;27;20763;-89
2021/12/12 09:17:54;;;;;;;20.53;9.53;;;4.00;99.90;;;;;;5097159;28;20501;-92
2021/12/12 09:20:36;;;;;;;16.23;8.03;;;4.10;99.90;;;;;;5085321;28;20922;-94
2021/12/12 09:23:08;;;;;;;16.63;6.63;;;4.00;99.90;;;;;;5096548;28;20995;-91
2021/12/12 09:25:51;;;;;;;12.97;6.70;;;4.10;99.90;;;;;;5095834;28;20962;-92
2021/12/12 09:28:28;;;;;;;17.57;9.33;;;4.10;99.90;;;;;;5081569;28;20414;-87
2021/12/12 09:30:57;;;;;;;17.80;8.70;;;4.10;99.90;;;;;;5075167;28;21132;-91
2021/12/12 09:33:32;;;;;;;17.00;8.13;;;4.10;99.90;;;;;;5085196;28;20427;-92
2021/12/12 09:36:27;;;;;;;14.40;8.97;;;4.10;99.90;;;;;;5098702;28;20394;-88
2021/12/12 09:38:59;;;;;;;12.40;7.20;;;4.10;99.90;;;;;;5092124;28;20514;-89
2021/12/12 09:42:02;;;;;;;18.90;8.47;;;4.10;99.90;;;;;;5098281;28;20488;-89
2021/12/12 09:45:02;;;;;;;14.43;8.63;;;4.10;99.90;;;;;;5077796;28;20391;-91
2021/12/12 09:48:03;;;;;;;15.60;7.80;;;4.20;99.90;;;;;;5075200;28;20477;-91
2021/12/12 09:54:02;;;;;;;12.20;6.30;;;4.20;99.90;;;;;;5075254;28;20804;-93
2021/12/12 09:56:48;;;;;;;10.87;6.10;;;4.30;99.90;;;;;;5073596;28;20416;-89
2021/12/12 09:59:40;;;;;;;9.17;5.93;;;4.30;99.90;;;;;;5074774;28;20439;-90
2021/12/12 10:02:20;;;;;;;11.73;5.73;;;4.30;99.90;;;;;;5089450;28;20791;-90
2021/12/12 10:05:00;;;;;;;8.20;5.50;;;4.40;99.90;;;;;;5095011;28;20402;-90
2021/12/12 10:07:47;;;;;;;10.30;5.83;;;4.40;99.90;;;;;;5095122;28;20410;-91
2021/12/12 10:10:26;;;;;;;9.93;5.33;;;4.40;99.90;;;;;;5094926;28;20545;-93
2021/12/12 10:13:06;;;;;;;9.33;4.73;;;4.40;99.90;;;;;;5095285;28;20922;-90
2021/12/12 10:15:41;;;;;;;9.87;5.23;;;4.50;99.90;;;;;;5094950;28;20419;-91
2021/12/12 10:18:21;;;;;;;8.10;4.63;;;4.50;99.90;;;;;;5093532;28;20460;-90
2021/12/12 10:21:16;;;;;;;10.40;4.20;;;4.50;99.90;;;;;;5094826;28;20768;-91
2021/12/12 10:23:47;;;;;;;9.43;3.67;;;4.60;99.90;;;;;;5046534;28;20432;-89
2021/12/12 10:26:34;;;;;;;10.30;3.77;;;4.60;99.90;;;;;;5074050;28;20411;-90
2021/12/12 10:29:10;;;;;;;4.57;3.47;;;4.60;99.90;;;;;;5093798;28;20416;-92
2021/12/12 10:31:47;;;;;;;11.20;3.73;;;4.70;99.90;;;;;;5094426;28;20832;-93
2021/12/12 10:34:31;;;;;;;9.53;3.70;;;4.70;99.90;;;;;;5092966;28;20422;-91
2021/12/12 10:37:08;;;;;;;5.60;3.30;;;4.90;99.90;;;;;;5092538;28;20471;-92
2021/12/12 10:39:59;;;;;;;6.17;2.83;;;4.80;99.90;;;;;;5093690;28;20462;-91
2021/12/12 10:42:30;;;;;;;8.00;3.20;;;4.90;99.90;;;;;;5087624;28;20417;-92
2021/12/12 10:45:01;;;;;;;5.53;2.60;;;4.90;99.90;;;;;;5094649;28;20399;-90
2021/12/12 10:47:35;;;;;;;6.07;2.70;;;4.90;99.90;;;;;;5093411;28;20514;-92
2021/12/12 10:50:19;;;;;;;3.30;1.90;;;5.00;99.90;;;;;;5092719;28;20417;-91
2021/12/12 10:53:01;;;;;;;7.10;3.00;;;5.00;99.90;;;;;;5094032;28;20419;-91
2021/12/12 10:55:47;;;;;;;8.87;2.57;;;5.00;99.90;;;;;;5087713;28;20419;-90
2021/12/12 10:58:24;;;;;;;5.40;2.10;;;5.00;99.90;;;;;;5080301;28;20427;-86
2021/12/12 11:00:56;;;;;;;6.00;1.90;;;5.00;99.90;;;;;;5072269;28;20494;-90
2021/12/12 11:03:44;;;;;;;4.03;1.83;;;5.00;99.90;;;;;;5072429;28;20423;-89
2021/12/12 11:06:25;;;;;;;4.70;1.60;;;5.10;99.90;;;;;;5074954;28;20419;-88
2021/12/12 11:09:15;;;;;;;5.40;2.20;;;5.10;99.90;;;;;;5072057;28;20513;-90
2021/12/12 11:11:45;;;;;;;2.70;1.73;;;5.10;99.90;;;;;;5072754;28;20463;-93
2021/12/12 11:14:31;;;;;;;3.10;1.70;;;5.10;99.90;;;;;;5073326;28;20410;-87
2021/12/12 11:17:04;;;;;;;3.20;1.70;;;5.10;99.90;;;;;;5070717;28;20778;-87
2021/12/12 11:19:48;;;;;;;3.83;2.27;;;5.10;99.90;;;;;;5070757;28;20412;-87
2021/12/12 11:22:24;;;;;;;3.27;1.33;;;5.10;99.90;;;;;;5070848;28;20415;-87
2021/12/12 11:25:22;;;;;;;2.97;1.97;;;5.10;99.90;;;;;;5070331;28;20410;-86
2021/12/12 11:27:57;;;;;;;3.43;1.90;;;5.10;99.90;;;;;;5062048;28;20938;-88
2021/12/12 11:30:46;;;;;;;4.63;1.97;;;5.10;99.90;;;;;;5071221;28;20473;-88
2021/12/12 11:33:15;;;;;;;4.50;2.03;;;5.10;99.90;;;;;;5064255;28;20423;-88
2021/12/12 11:35:44;;;;;;;3.70;1.70;;;5.20;99.90;;;;;;5072297;28;20451;-87
2021/12/12 11:38:37;;;;;;;3.53;2.07;;;5.10;99.90;;;;;;5071995;28;20443;-88
2021/12/12 11:41:16;;;;;;;5.83;2.83;;;5.10;99.90;;;;;;5063339;28;20422;-87
2021/12/12 11:43:42;;;;;;;4.37;2.60;;;5.20;99.90;;;;;;5070349;28;20757;-87
2021/12/12 11:46:29;;;;;;;5.23;2.33;;;5.20;99.90;;;;;;5071868;28;20406;-88
2021/12/12 11:49:00;;;;;;;3.53;2.30;;;5.20;99.90;;;;;;5073848;28;20211;-87
2021/12/12 11:51:48;;;;;;;6.70;1.93;;;5.20;99.90;;;;;;5075279;28;20477;-87
2021/12/12 11:54:53;;;;;;;6.10;3.90;;;5.20;99.90;;;;;;5075907;28;20469;-88
2021/12/12 11:57:28;;;;;;;5.23;2.90;;;5.20;99.90;;;;;;5061278;28;20867;-90
2021/12/12 12:00:25;;;;;;;3.00;1.73;;;5.20;99.90;;;;;;5075403;28;20415;-90
2021/12/12 12:03:35;;;;;;;2.93;1.27;;;5.20;99.90;;;;;;5076215;28;20407;-90
2021/12/12 12:06:31;;;;;;;2.43;1.63;;;5.20;99.90;;;;;;5034707;28;20421;-88
2021/12/12 12:09:44;;;;;;;4.13;2.37;;;5.30;99.90;;;;;;5076151;28;20499;-88
2021/12/12 12:12:37;;;;;;;3.53;2.57;;;5.30;99.90;;;;;;5079538;28;20461;-89
2021/12/12 12:15:18;;;;;;;3.60;1.80;;;5.30;99.90;;;;;;5096523;28;20413;-89
2021/12/12 12:17:55;;;;;;;4.40;1.97;;;5.30;99.90;;;;;;5095285;28;20425;-93
2021/12/12 12:20:46;;;;;;;2.83;2.03;;;5.20;99.90;;;;;;5095178;28;20505;-88
2021/12/12 12:23:18;;;;;;;4.60;2.70;;;5.30;99.90;;;;;;5095889;28;20505;-90
2021/12/12 12:28:53;;;;;;;6.43;1.67;;;5.30;99.90;;;;;;5097008;28;20393;-90
2021/12/12 12:31:36;;;;;;;6.10;2.97;;;5.30;99.90;;;;;;5095752;28;21034;-92
2021/12/12 12:34:40;;;;;;;4.23;2.33;;;5.30;99.90;;;;;;5096443;28;20410;-90
2021/12/12 12:37:42;;;;;;;6.57;3.17;;;5.30;99.90;;;;;;5095540;28;20418;-89
2021/12/12 12:40:46;;;;;;;3.13;1.83;;;5.30;99.90;;;;;;5095635;28;20418;-91
2021/12/12 12:43:49;;;;;;;4.77;2.77;;;5.40;99.90;;;;;;5094456;28;20566;-90
2021/12/12 12:46:52;;;;;;;5.13;3.00;;;5.40;99.90;;;;;;5094951;28;20938;-90
2021/12/12 12:49:55;;;;;;;5.00;2.63;;;5.40;99.90;;;;;;5094616;28;21196;-89
2021/12/12 12:52:36;;;;;;;6.53;2.70;;;5.40;99.90;;;;;;5095049;28;20552;-92
2021/12/12 12:55:35;;;;;;;4.97;2.90;;;5.40;99.90;;;;;;5095504;28;20426;-92
2021/12/12 12:58:34;;;;;;;3.33;2.13;;;5.50;99.90;;;;;;5094736;28;20442;-90
2021/12/12 13:01:16;;;;;;;7.10;3.63;;;5.50;99.90;;;;;;5080196;28;20937;-91
2021/12/12 13:04:03;;;;;;;5.20;2.93;;;5.50;99.90;;;;;;5095281;28;20509;-92
2021/12/12 13:07:13;;;;;;;5.20;3.50;;;5.50;99.90;;;;;;5079209;28;20896;-89
2021/12/12 13:09:51;;;;;;;4.90;3.40;;;5.50;99.90;;;;;;5048279;28;20423;-93
2021/12/12 13:12:43;;;;;;;6.20;4.50;;;5.50;99.90;;;;;;5074112;28;20486;-87
2021/12/12 13:15:35;;;;;;;10.67;3.13;;;5.50;99.90;;;;;;5095356;28;20399;-93
2021/12/12 13:18:23;;;;;;;4.10;3.17;;;5.50;99.90;;;;;;5090566;28;20540;-91
2021/12/12 13:21:27;;;;;;;5.30;2.80;;;5.60;99.90;;;;;;5066029;28;20467;-90
2021/12/12 13:24:27;;;;;;;5.63;3.13;;;5.50;99.90;;;;;;5095739;28;20500;-91
2021/12/12 13:27:09;;;;;;;6.73;3.23;;;5.60;99.90;;;;;;5095260;28;20432;-94
2021/12/12 13:29:54;;;;;;;3.90;3.17;;;5.60;99.90;;;;;;5095833;28;20426;-94
2021/12/12 13:32:27;;;;;;;5.37;3.43;;;5.60;99.90;;;;;;5094848;28;20490;-94
2021/12/12 13:35:15;;;;;;;7.57;3.90;;;5.70;99.90;;;;;;5095126;28;20417;-90
2021/12/12 13:38:05;;;;;;;9.07;3.30;;;5.70;99.90;;;;;;5095336;28;20506;-88
2021/12/12 13:41:03;;;;;;;5.57;3.43;;;5.70;99.90;;;;;;5094695;28;20426;-92
2021/12/12 13:43:51;;;;;;;5.00;3.10;;;5.70;99.90;;;;;;5093278;28;20433;-92
2021/12/12 13:46:39;;;;;;;7.03;3.47;;;5.70;99.90;;;;;;5094713;28;20970;-95